SBMO/MCZ METAR and TAF weather

Enter ICAO airport designator
Station Type Date Time Source
SBMO METAR 2019/12/08 17:00 UTC NOAA

SBMO 081700Z 09018KT 9999 FEW036 32/22 Q1010


Station Type Date Time Source
SBMO Decoded METAR 2019/12/08 17:00 UTC NOAA

Maceio Aeroporto , Brazil (SBMO) 09-31S 035-47W 115M
Dec 08, 2019 - 12:00 PM EST / 2019.12.08 1700 UTC
Wind: from the E (090 degrees) at 21 MPH (18 KT):0
Visibility: greater than 7 mile(s):0
Sky conditions: mostly clear
Temperature: 89 F (32 C)
Heat index: 95.0 F (35.0 C):1
Dew Point: 71 F (22 C)
Relative Humidity: 55%
Pressure (altimeter): 29.83 in. Hg (1010 hPa)
ob: SBMO 081700Z 09018KT 9999 FEW036 32/22 Q1010
cycle: 17

Station Type Date Time Source
SBMO TAF 2019/12/08 18:57 UTC NOAA

TAF SBMO 081600Z 0818/0918 10015KT 9999 SCT035 TN24/0904Z TX32/0914Z
BECMG 0819/0821 06010KT CAVOK
BECMG 0904/0906 03005KT
BECMG 0909/0911 06010KT BKN025
BECMG 0915/0917 09015KT FEW040
RMK PEH

Example: see airport list